Time;durP1;ratioP1;P1;durP2;ratioP2;P2;SDS_P1;SDS_P2;PMS_P1;PMS_P2;Temp;Humidity;BMP_temperature;BMP_pressure;BME280_temperature;BME280_humidity;BME280_pressure;Samples;Min_cycle;Max_cycle;Signal;HPM_P1;HPM_P2
2023/11/22 00:01:50;;;;;;;8.97;4.33;;;;;;;9.49;100.00;96416.91;5037795;28;20259;-68
2023/11/22 00:04:18;;;;;;;7.93;3.67;;;;;;;9.43;100.00;96425.50;5037574;28;20201;-69
2023/11/22 00:06:44;;;;;;;10.43;4.63;;;;;;;9.39;100.00;96418.06;5037777;28;20225;-67
2023/11/22 00:09:11;;;;;;;12.43;4.23;;;;;;;9.38;100.00;96414.63;5037323;28;20214;-68
2023/11/22 00:11:38;;;;;;;9.57;4.30;;;;;;;9.58;100.00;96415.09;5037568;28;20225;-67
2023/11/22 00:14:04;;;;;;;10.30;5.17;;;;;;;9.43;100.00;96411.50;5037348;28;20206;-68
2023/11/22 00:16:31;;;;;;;8.07;3.70;;;;;;;9.36;100.00;96410.53;5037179;28;20201;-67
2023/11/22 00:18:58;;;;;;;9.43;4.20;;;;;;;9.38;100.00;96411.16;5037620;28;20215;-68
2023/11/22 00:21:24;;;;;;;10.10;4.63;;;;;;;9.51;100.00;96407.06;5037246;28;20216;-67
2023/11/22 00:23:51;;;;;;;8.13;3.73;;;;;;;9.46;100.00;96405.94;5037247;28;20205;-68
2023/11/22 00:26:17;;;;;;;8.10;3.97;;;;;;;9.36;100.00;96405.28;5037006;28;20606;-69
2023/11/22 00:28:45;;;;;;;9.73;4.07;;;;;;;9.55;100.00;96404.94;5037900;28;20224;-67
2023/11/22 00:31:14;;;;;;;9.87;4.73;;;;;;;9.49;100.00;96405.59;5037168;28;20335;-66
2023/11/22 00:33:41;;;;;;;9.43;4.40;;;;;;;9.43;100.00;96412.34;5037000;28;20207;-68
2023/11/22 00:36:09;;;;;;;10.47;4.10;;;;;;;9.49;100.00;96416.09;5036759;28;20279;-68
2023/11/22 00:38:37;;;;;;;8.87;4.00;;;;;;;9.44;100.00;96407.88;5037679;28;20216;-67
2023/11/22 00:41:03;;;;;;;6.63;3.67;;;;;;;9.45;100.00;96409.53;5037025;28;20291;-68
2023/11/22 00:43:30;;;;;;;9.33;4.43;;;;;;;9.45;100.00;96409.53;5037328;28;20215;-66
2023/11/22 00:45:58;;;;;;;10.50;4.77;;;;;;;9.56;100.00;96409.19;5036927;28;20279;-68
2023/11/22 00:48:24;;;;;;;8.13;3.80;;;;;;;9.45;100.00;96409.53;5036423;28;20209;-68
2023/11/22 00:50:51;;;;;;;8.93;4.03;;;;;;;9.42;100.00;96412.47;5036639;28;20212;-69
2023/11/22 00:53:18;;;;;;;9.13;4.37;;;;;;;9.44;100.00;96413.16;5036429;28;20224;-68
2023/11/22 00:55:44;;;;;;;9.13;4.10;;;;;;;9.44;100.00;96416.59;5035960;28;20635;-67
2023/11/22 00:58:11;;;;;;;13.93;3.57;;;;;;;9.44;100.00;96418.41;5036179;28;20216;-67
2023/11/22 01:00:38;;;;;;;11.07;4.03;;;;;;;9.48;100.00;96427.59;5037509;28;20205;-67
2023/11/22 01:03:06;;;;;;;8.13;3.63;;;;;;;9.41;100.00;96432.72;5036327;28;20201;-66
2023/11/22 01:05:32;;;;;;;5.87;2.80;;;;;;;8.35;100.00;96438.13;5035628;28;21037;-68
2023/11/22 01:07:59;;;;;;;5.73;2.40;;;;;;;7.98;100.00;96445.47;5037199;28;20208;-66
2023/11/22 01:10:25;;;;;;;4.33;2.10;;;;;;;7.81;100.00;96448.16;5036622;28;20201;-68
2023/11/22 01:12:52;;;;;;;5.27;2.53;;;;;;;8.14;100.00;96456.06;5036638;28;20225;-66
2023/11/22 01:15:19;;;;;;;3.70;1.73;;;;;;;8.00;100.00;96459.25;5036231;28;20967;-67
2023/11/22 01:17:46;;;;;;;4.47;2.30;;;;;;;7.72;100.00;96459.56;5037076;28;20197;-67
2023/11/22 01:20:14;;;;;;;4.63;2.10;;;;;;;8.05;100.00;96458.78;5035935;28;20713;-68
2023/11/22 01:22:42;;;;;;;3.53;1.47;;;;;;;7.94;100.00;96464.28;5036500;28;21250;-66
2023/11/22 01:25:09;;;;;;;2.73;1.60;;;;;;;7.69;100.00;96464.28;5036080;28;20225;-66
2023/11/22 01:27:35;;;;;;;4.20;2.57;;;;;;;8.16;100.00;96469.03;5036406;28;20209;-68
2023/11/22 01:30:03;;;;;;;3.23;1.80;;;;;;;7.87;100.00;96477.19;5036646;28;20207;-69
2023/11/22 01:32:30;;;;;;;4.37;2.10;;;;;;;7.68;100.00;96473.97;5036144;28;20224;-66
2023/11/22 01:34:57;;;;;;;2.37;1.60;;;;;;;7.36;100.00;96481.59;5035386;28;20703;-65
2023/11/22 01:37:25;;;;;;;4.07;2.00;;;;;;;7.46;100.00;96471.84;5036216;28;20204;-69
2023/11/22 01:39:52;;;;;;;3.57;2.33;;;;;;;7.23;100.00;96485.59;5036844;28;20683;-68
2023/11/22 01:42:20;;;;;;;4.53;2.23;;;;;;;6.93;100.00;96475.47;5035832;28;20197;-69
2023/11/22 01:44:47;;;;;;;3.43;1.97;;;;;;;7.30;100.00;96482.19;5035751;28;20300;-68
2023/11/22 01:47:14;;;;;;;3.53;2.03;;;;;;;7.13;100.00;96486.63;5035997;28;20213;-67
2023/11/22 01:49:42;;;;;;;3.93;1.87;;;;;;;7.10;100.00;96486.94;5037643;28;20205;-68
2023/11/22 01:52:08;;;;;;;4.00;1.97;;;;;;;7.07;100.00;96498.53;5036738;28;20702;-67
2023/11/22 01:54:36;;;;;;;4.47;2.67;;;;;;;6.99;100.00;96511.56;5036538;28;20225;-67
2023/11/22 01:57:06;;;;;;;4.30;2.47;;;;;;;6.98;100.00;96509.91;5035337;28;20292;-67
2023/11/22 01:59:33;;;;;;;4.17;2.53;;;;;;;6.62;100.00;96528.34;5035713;28;20340;-67
2023/11/22 02:01:59;;;;;;;4.00;2.23;;;;;;;6.57;100.00;96522.72;5036330;28;20197;-67
2023/11/22 02:04:26;;;;;;;3.47;2.00;;;;;;;6.68;100.00;96520.72;5035637;28;20241;-67
2023/11/22 02:06:53;;;;;;;3.83;2.33;;;;;;;6.71;100.00;96517.00;5035290;28;20205;-67
2023/11/22 02:09:20;;;;;;;4.43;2.40;;;;;;;6.39;100.00;96526.22;5036203;28;20201;-67
2023/11/22 02:11:49;;;;;;;4.30;2.40;;;;;;;6.60;100.00;96522.41;5036229;28;20225;-67
2023/11/22 02:14:15;;;;;;;4.70;2.27;;;;;;;6.71;100.00;96524.84;5034952;28;20209;-67
2023/11/22 02:16:42;;;;;;;4.33;2.10;;;;;;;6.81;100.00;96528.19;5035473;28;20197;-67
2023/11/22 02:19:15;;;;;;;4.57;2.50;;;;;;;6.82;100.00;96542.94;5036198;28;20221;-67
2023/11/22 02:21:41;;;;;;;4.90;2.70;;;;;;;6.60;100.00;96545.97;5035929;28;20201;-67
2023/11/22 02:24:10;;;;;;;3.73;2.13;;;;;;;6.45;100.00;96538.75;5035841;28;20208;-67
2023/11/22 02:26:38;;;;;;;4.53;2.07;;;;;;;6.52;100.00;96550.28;5035014;28;20200;-67
2023/11/22 02:29:04;;;;;;;4.20;1.60;;;;;;;5.92;100.00;96555.16;5036326;28;20205;-67
2023/11/22 02:31:31;;;;;;;3.20;1.57;;;;;;;6.12;100.00;96555.81;5035496;28;20637;-67
2023/11/22 02:33:57;;;;;;;4.67;2.10;;;;;;;6.10;100.00;96557.75;5035468;28;20204;-67
2023/11/22 02:36:24;;;;;;;4.10;2.10;;;;;;;5.76;100.00;96562.78;5035301;28;20201;-67
2023/11/22 02:38:51;;;;;;;2.90;2.00;;;;;;;5.86;100.00;96558.38;5036271;28;20201;-67
2023/11/22 02:41:19;;;;;;;4.37;1.83;;;;;;;6.07;100.00;96568.50;5035280;28;20202;-67
2023/11/22 02:43:46;;;;;;;4.27;1.73;;;;;;;6.21;100.00;96573.28;5036129;28;20578;-67
2023/11/22 02:46:12;;;;;;;4.13;2.00;;;;;;;6.17;100.00;96566.69;5035128;28;20236;-67
2023/11/22 02:48:39;;;;;;;5.10;2.60;;;;;;;6.15;100.00;96566.00;5035242;28;20209;-67
2023/11/22 02:51:06;;;;;;;4.30;2.03;;;;;;;6.06;100.00;96569.47;5035773;28;20640;-67
2023/11/22 02:53:33;;;;;;;4.87;2.47;;;;;;;6.18;100.00;96560.47;5035584;28;20220;-67
2023/11/22 02:56:00;;;;;;;4.53;2.30;;;;;;;6.49;100.00;96566.28;5034792;28;20221;-67
2023/11/22 02:58:29;;;;;;;4.40;1.97;;;;;;;6.29;100.00;96569.97;5035422;28;20224;-68
2023/11/22 03:00:57;;;;;;;6.07;2.27;;;;;;;6.30;100.00;96569.81;5035501;28;20585;-67
2023/11/22 03:03:23;;;;;;;3.47;1.63;;;;;;;6.11;100.00;96575.09;5035352;28;20193;-67
2023/11/22 03:05:50;;;;;;;4.60;2.40;;;;;;;6.21;100.00;96570.66;5034741;28;20232;-67
2023/11/22 03:08:17;;;;;;;4.87;2.17;;;;;;;6.07;100.00;96573.72;5035367;28;20211;-67
2023/11/22 03:10:44;;;;;;;5.53;2.30;;;;;;;5.74;100.00;96582.97;5035629;28;20205;-67
2023/11/22 03:13:10;;;;;;;5.07;2.33;;;;;;;5.74;100.00;96575.13;5033409;28;20667;-67
2023/11/22 03:15:38;;;;;;;5.17;2.77;;;;;;;6.05;100.00;96583.50;5038480;28;20224;-67
2023/11/22 03:18:06;;;;;;;4.67;2.20;;;;;;;6.05;100.00;96582.69;5039091;28;20213;-67
2023/11/22 03:20:32;;;;;;;3.70;2.00;;;;;;;6.36;100.00;96584.91;5038506;28;20846;-67
2023/11/22 03:22:59;;;;;;;5.23;2.83;;;;;;;6.25;100.00;96586.88;5039371;28;20197;-67
2023/11/22 03:25:26;;;;;;;4.20;2.27;;;;;;;6.39;100.00;96595.13;5038262;28;20225;-67
2023/11/22 03:27:53;;;;;;;6.20;2.83;;;;;;;6.01;100.00;96598.78;5039129;28;20201;-67
2023/11/22 03:30:19;;;;;;;6.37;2.53;;;;;;;6.39;100.00;96595.13;5038287;28;20213;-67
2023/11/22 03:32:48;;;;;;;5.33;2.73;;;;;;;6.04;100.00;96594.09;5038659;28;20220;-67
2023/11/22 03:35:14;;;;;;;5.27;2.67;;;;;;;5.97;100.00;96597.41;5038323;28;20275;-67
2023/11/22 03:37:41;;;;;;;6.87;2.80;;;;;;;6.11;100.00;96596.03;5038298;28;20201;-67
2023/11/22 03:40:09;;;;;;;5.97;2.40;;;;;;;6.04;100.00;96598.53;5038397;28;20197;-67
2023/11/22 03:42:37;;;;;;;5.93;3.00;;;;;;;6.32;100.00;96598.44;5038229;28;20569;-67
2023/11/22 03:45:04;;;;;;;4.40;2.03;;;;;;;5.90;100.00;96606.81;5037738;28;20224;-67
2023/11/22 03:47:32;;;;;;;3.53;1.97;;;;;;;6.09;100.00;96608.41;5038220;28;20588;-67
2023/11/22 03:50:00;;;;;;;3.53;2.00;;;;;;;6.13;100.00;96609.78;5038098;28;20208;-67
2023/11/22 03:52:27;;;;;;;4.90;2.30;;;;;;;6.16;100.00;96622.59;5037832;28;20221;-67
2023/11/22 03:54:54;;;;;;;5.77;2.67;;;;;;;6.30;100.00;96627.38;5038003;28;20582;-67
2023/11/22 03:57:20;;;;;;;5.90;2.40;;;;;;;5.84;100.00;96633.50;5037264;28;20201;-67
2023/11/22 03:59:47;;;;;;;5.27;2.60;;;;;;;5.97;100.00;96631.44;5037834;28;21184;-67
2023/11/22 04:02:14;;;;;;;6.13;2.10;;;;;;;6.15;100.00;96634.00;5037776;28;20292;-67
2023/11/22 04:04:41;;;;;;;6.23;2.30;;;;;;;5.90;100.00;96648.66;5037947;28;20217;-67
2023/11/22 04:07:09;;;;;;;6.47;2.87;;;;;;;6.14;100.00;96640.22;5037820;28;20209;-67
2023/11/22 04:09:35;;;;;;;11.03;3.90;;;;;;;6.09;100.00;96645.03;5037980;28;20208;-67
2023/11/22 04:12:03;;;;;;;6.20;2.97;;;;;;;6.00;100.00;96654.72;5037631;28;20579;-67
2023/11/22 04:14:30;;;;;;;8.90;3.63;;;;;;;5.78;100.00;96650.59;5037614;28;20674;-67
2023/11/22 04:16:56;;;;;;;7.43;3.87;;;;;;;5.72;100.00;96655.50;5036844;28;20205;-67
2023/11/22 04:19:23;;;;;;;7.63;3.73;;;;;;;5.91;100.00;96668.63;5037723;28;20588;-67
2023/11/22 04:21:49;;;;;;;8.63;4.20;;;;;;;6.07;100.00;96667.06;5037679;28;20201;-67
2023/11/22 04:24:17;;;;;;;9.17;4.40;;;;;;;5.93;100.00;96670.13;5037655;28;20201;-67
2023/11/22 04:26:44;;;;;;;9.97;3.83;;;;;;;5.75;100.00;96666.53;5037184;28;20203;-67
2023/11/22 04:29:09;;;;;;;8.57;4.03;;;;;;;5.74;100.00;96669.25;5037356;28;20208;-67
2023/11/22 04:31:36;;;;;;;12.70;4.87;;;;;;;5.67;100.00;96674.19;5037546;28;20205;-67
2023/11/22 04:34:02;;;;;;;11.60;4.27;;;;;;;5.29;100.00;96675.94;5037002;28;21068;-67
2023/11/22 04:36:29;;;;;;;11.00;5.03;;;;;;;5.46;100.00;96688.38;5038142;28;20201;-67
2023/11/22 04:38:55;;;;;;;8.93;4.30;;;;;;;5.27;100.00;96692.72;5037430;28;20312;-67
2023/11/22 04:41:25;;;;;;;9.50;4.13;;;;;;;5.38;100.00;96703.88;5036381;28;20205;-67
2023/11/22 04:43:51;;;;;;;8.90;4.13;;;;;;;4.82;100.00;96711.53;5037334;28;20201;-67
2023/11/22 04:46:18;;;;;;;8.10;4.33;;;;;;;5.02;100.00;96714.91;5037178;28;20224;-67
2023/11/22 04:48:44;;;;;;;12.13;5.13;;;;;;;4.79;100.00;96730.09;5036640;28;20205;-67
2023/11/22 04:51:11;;;;;;;10.30;4.73;;;;;;;4.93;100.00;96728.75;5036582;28;20211;-67
2023/11/22 04:53:38;;;;;;;10.80;5.03;;;;;;;4.93;100.00;96744.41;5037392;28;20221;-67
2023/11/22 04:56:05;;;;;;;10.63;4.83;;;;;;;4.87;100.00;96744.97;5036281;28;20232;-67
2023/11/22 04:58:33;;;;;;;10.83;5.43;;;;;;;5.16;100.00;96750.31;5036773;28;20797;-68
2023/11/22 05:01:01;;;;;;;12.33;5.23;;;;;;;4.92;100.00;96747.97;5037012;28;20228;-67
2023/11/22 05:03:28;;;;;;;9.63;5.20;;;;;;;4.75;100.00;96755.59;5036629;28;20667;-68
2023/11/22 05:05:54;;;;;;;9.90;4.67;;;;;;;4.68;100.00;96761.47;5036108;28;20240;-67
2023/11/22 05:08:21;;;;;;;12.87;4.73;;;;;;;4.78;100.00;96759.75;5037032;28;20262;-68
2023/11/22 05:10:47;;;;;;;13.70;5.17;;;;;;;5.16;100.00;96758.13;5036199;28;20231;-67
2023/11/22 05:13:14;;;;;;;11.47;5.10;;;;;;;4.80;100.00;96756.06;5036281;28;20235;-68
2023/11/22 05:15:41;;;;;;;11.97;5.23;;;;;;;5.04;100.00;96754.78;5036103;28;20231;-67
2023/11/22 05:18:08;;;;;;;10.57;5.20;;;;;;;5.09;100.00;96750.00;5036514;28;20224;-67
2023/11/22 05:20:34;;;;;;;10.53;4.37;;;;;;;4.65;100.00;96753.91;5036406;28;20740;-67
2023/11/22 05:23:04;;;;;;;9.50;4.20;;;;;;;4.84;100.00;96770.50;5036712;28;20204;-68
2023/11/22 05:25:30;;;;;;;9.47;4.07;;;;;;;4.59;100.00;96781.31;5035527;28;20223;-68
2023/11/22 05:27:57;;;;;;;8.03;4.30;;;;;;;4.77;100.00;96789.41;5036138;28;20570;-67
2023/11/22 05:30:23;;;;;;;9.13;4.20;;;;;;;4.69;100.00;96791.84;5036825;28;20207;-68
2023/11/22 05:32:52;;;;;;;8.87;3.30;;;;;;;4.64;100.00;96789.59;5036533;28;20224;-67
2023/11/22 05:35:19;;;;;;;10.33;4.40;;;;;;;4.87;100.00;96791.97;5035314;28;20224;-68
2023/11/22 05:37:46;;;;;;;8.80;4.00;;;;;;;4.88;100.00;96790.97;5036206;28;20207;-67
2023/11/22 05:40:13;;;;;;;10.47;4.13;;;;;;;5.01;100.00;96782.94;5036864;28;20793;-68
2023/11/22 05:42:40;;;;;;;9.20;4.33;;;;;;;4.76;100.00;96788.59;5036182;28;20264;-68
2023/11/22 05:45:07;;;;;;;6.17;3.17;;;;;;;5.21;100.00;96784.69;5035609;28;21062;-67
2023/11/22 05:47:34;;;;;;;11.77;4.10;;;;;;;4.73;100.00;96777.56;5036235;28;20200;-67
2023/11/22 05:50:01;;;;;;;7.67;3.30;;;;;;;4.43;100.00;96791.41;5036993;28;20201;-68
2023/11/22 05:52:28;;;;;;;5.70;3.00;;;;;;;4.63;100.00;96784.50;5035426;28;20211;-68
2023/11/22 05:54:54;;;;;;;9.97;4.07;;;;;;;4.39;100.00;96791.75;5036093;28;20239;-68
2023/11/22 05:57:21;;;;;;;6.90;3.63;;;;;;;4.31;100.00;96791.56;5036359;28;20212;-67
2023/11/22 05:59:47;;;;;;;8.13;4.03;;;;;;;4.39;100.00;96791.75;5036106;28;20200;-68
2023/11/22 06:02:14;;;;;;;7.03;3.40;;;;;;;4.31;100.00;96791.56;5036027;28;20684;-68
2023/11/22 06:04:40;;;;;;;7.87;3.70;;;;;;;4.13;100.00;96795.69;5035982;28;20229;-67
2023/11/22 06:07:08;;;;;;;7.23;3.87;;;;;;;4.71;100.00;96788.16;5035364;28;20595;-68
2023/11/22 06:09:36;;;;;;;8.20;3.73;;;;;;;4.11;100.00;96789.78;5035692;28;20204;-67
2023/11/22 06:12:02;;;;;;;7.13;3.30;;;;;;;4.45;100.00;96799.91;5036405;28;20201;-67
2023/11/22 06:14:28;;;;;;;8.87;3.33;;;;;;;4.22;100.00;96808.78;5035679;28;20232;-68
2023/11/22 06:16:55;;;;;;;6.97;3.80;;;;;;;4.68;100.00;96813.66;5035681;28;20600;-67
2023/11/22 06:19:21;;;;;;;4.93;3.07;;;;;;;4.68;100.00;96819.72;5036445;28;20300;-67
2023/11/22 06:21:48;;;;;;;8.60;3.83;;;;;;;4.79;100.00;96817.03;5035853;28;20210;-67
2023/11/22 06:24:16;;;;;;;7.93;3.57;;;;;;;5.18;100.00;96816.28;5035724;28;20220;-68
2023/11/22 06:26:43;;;;;;;6.63;3.20;;;;;;;4.47;100.00;96834.53;5035835;28;20741;-67
2023/11/22 06:29:09;;;;;;;8.50;3.13;;;;;;;4.52;100.00;96845.44;5035988;28;20709;-67
2023/11/22 06:31:36;;;;;;;6.90;3.30;;;;;;;4.59;100.00;96850.97;5035672;28;20205;-67
2023/11/22 06:34:02;;;;;;;6.37;3.33;;;;;;;4.83;100.00;96861.03;5035747;28;20224;-67
2023/11/22 06:36:30;;;;;;;6.33;3.10;;;;;;;4.97;100.00;96868.53;5035606;28;20223;-67
2023/11/22 06:38:56;;;;;;;6.90;3.20;;;;;;;4.65;100.00;96863.53;5035973;28;20270;-67
2023/11/22 06:41:24;;;;;;;7.63;3.40;;;;;;;4.75;100.00;96869.63;5035734;28;20209;-67
2023/11/22 06:43:51;;;;;;;7.60;3.47;;;;;;;4.40;100.00;96880.38;5035700;28;20197;-67
2023/11/22 06:46:17;;;;;;;7.23;3.30;;;;;;;4.53;100.00;96877.56;5034740;28;20228;-67
2023/11/22 06:48:44;;;;;;;6.37;3.00;;;;;;;4.37;100.00;96890.22;5037118;28;20587;-67
2023/11/22 06:51:11;;;;;;;8.00;3.10;;;;;;;4.48;100.00;96890.16;5038505;28;20205;-67
2023/11/22 06:53:38;;;;;;;8.87;3.43;;;;;;;4.10;100.00;96891.56;5034775;28;20626;-67
2023/11/22 06:56:05;;;;;;;8.37;3.63;;;;;;;4.38;100.00;96894.47;5036625;28;20725;-67
2023/11/22 06:58:33;;;;;;;6.80;3.27;;;;;;;4.33;100.00;96904.47;5038803;28;20219;-67
2023/11/22 07:01:00;;;;;;;6.57;3.30;;;;;;;4.21;100.00;96915.03;5038911;28;20211;-67
2023/11/22 07:03:27;;;;;;;4.00;2.67;;;;;;;4.07;100.00;96903.06;5038442;28;20212;-67
2023/11/22 07:05:53;;;;;;;7.07;3.67;;;;;;;4.23;100.00;96901.75;5036493;28;20244;-67
2023/11/22 07:08:21;;;;;;;7.00;3.30;;;;;;;3.91;100.00;96913.06;5038254;28;20212;-66
2023/11/22 07:10:48;;;;;;;5.60;3.00;;;;;;;4.26;100.00;96921.53;5038654;28;20684;-67
2023/11/22 07:13:15;;;;;;;7.23;3.37;;;;;;;4.25;100.00;96923.31;5037826;28;20218;-67
2023/11/22 07:15:42;;;;;;;7.50;3.43;;;;;;;4.52;100.00;96912.44;5037753;28;20285;-67
2023/11/22 07:18:10;;;;;;;7.40;3.20;;;;;;;4.65;100.00;96915.72;5039260;28;20205;-67
2023/11/22 07:20:37;;;;;;;6.77;3.10;;;;;;;4.61;100.00;96912.53;5039184;28;20217;-68
2023/11/22 07:23:03;;;;;;;6.00;3.57;;;;;;;4.64;100.00;96919.28;5038574;28;20236;-67
2023/11/22 07:25:31;;;;;;;7.73;3.47;;;;;;;4.44;100.00;96917.44;5038635;28;20290;-67
2023/11/22 07:27:59;;;;;;;7.43;3.93;;;;;;;4.24;100.00;96924.28;5038643;28;20210;-67
2023/11/22 07:30:29;;;;;;;5.10;2.90;;;;;;;3.99;100.00;96926.34;5038473;28;20323;-68
2023/11/22 07:32:58;;;;;;;5.83;3.20;;;;;;;4.46;100.00;96934.63;5039468;28;20205;-67
2023/11/22 07:35:25;;;;;;;6.23;3.23;;;;;;;4.38;100.00;96939.66;5037687;28;20232;-67
2023/11/22 07:37:54;;;;;;;6.53;3.23;;;;;;;4.00;100.00;96946.25;5038238;28;20205;-67
2023/11/22 07:40:22;;;;;;;9.80;3.63;;;;;;;4.04;100.00;96945.06;5038242;28;20218;-67
2023/11/22 07:42:49;;;;;;;6.27;3.27;;;;;;;3.95;100.00;96952.78;5038815;28;20585;-67
2023/11/22 07:45:16;;;;;;;4.77;2.90;;;;;;;3.98;100.00;96966.38;5038059;28;20224;-67
2023/11/22 07:47:43;;;;;;;8.17;3.13;;;;;;;4.48;100.00;96961.47;5038256;28;20209;-67
2023/11/22 07:50:12;;;;;;;6.80;3.93;;;;;;;4.75;100.00;96974.03;5038354;28;20203;-67
2023/11/22 07:52:40;;;;;;;6.77;3.43;;;;;;;4.41;100.00;96969.88;5037890;28;20219;-67
2023/11/22 07:55:07;;;;;;;7.00;3.67;;;;;;;4.75;100.00;96977.50;5036635;28;20727;-67
2023/11/22 07:57:34;;;;;;;9.13;3.67;;;;;;;4.57;100.00;96967.69;5037805;28;20216;-67
2023/11/22 08:00:04;;;;;;;9.03;3.37;;;;;;;4.49;100.00;96964.88;5037991;28;20207;-67
2023/11/22 08:02:30;;;;;;;7.03;3.10;;;;;;;4.60;100.00;96967.47;5037621;28;20320;-67
2023/11/22 08:04:57;;;;;;;6.23;3.53;;;;;;;4.72;100.00;96976.91;5038369;28;20220;-67
2023/11/22 08:07:26;;;;;;;7.10;3.20;;;;;;;4.77;100.00;96980.00;5038312;28;20228;-67
2023/11/22 08:09:53;;;;;;;7.00;3.87;;;;;;;4.73;100.00;96987.22;5037350;28;20208;-67
2023/11/22 08:12:19;;;;;;;7.40;3.43;;;;;;;4.27;100.00;96997.06;5036917;28;20219;-67
2023/11/22 08:14:46;;;;;;;8.27;3.17;;;;;;;4.28;100.00;96992.69;5037640;28;20804;-67
2023/11/22 08:17:13;;;;;;;7.07;3.30;;;;;;;4.45;100.00;96997.41;5036248;28;20216;-67
2023/11/22 08:19:41;;;;;;;5.70;3.20;;;;;;;4.17;100.00;96997.09;5037105;28;20590;-67
2023/11/22 08:22:07;;;;;;;5.73;2.83;;;;;;;4.36;100.00;97003.34;5036157;28;20350;-67
2023/11/22 08:24:36;;;;;;;5.77;3.00;;;;;;;4.42;100.00;97002.88;5036434;28;20502;-68
2023/11/22 08:27:03;;;;;;;5.57;2.80;;;;;;;4.36;100.00;97005.94;5036902;28;20208;-67
2023/11/22 08:29:29;;;;;;;6.00;3.13;;;;;;;4.77;100.00;97019.97;5036629;28;20239;-67
2023/11/22 08:31:56;;;;;;;10.27;3.60;;;;;;;5.48;100.00;97023.59;5036159;28;20205;-67
2023/11/22 08:34:23;;;;;;;7.30;2.73;;;;;;;6.16;100.00;97022.91;5036351;28;20717;-67
2023/11/22 08:36:49;;;;;;;4.03;2.57;;;;;;;5.28;100.00;97034.84;5037450;28;20200;-68
2023/11/22 08:39:16;;;;;;;4.77;2.80;;;;;;;5.04;100.00;97041.25;5036754;28;20209;-68
2023/11/22 08:41:44;;;;;;;3.83;2.37;;;;;;;4.77;100.00;97047.88;5037033;28;20566;-67
2023/11/22 08:44:10;;;;;;;3.80;2.20;;;;;;;4.68;100.00;97052.03;5037356;28;20201;-68
2023/11/22 08:46:37;;;;;;;5.37;2.60;;;;;;;4.43;100.00;97051.47;5037046;28;20205;-67
2023/11/22 08:49:03;;;;;;;4.70;2.03;;;;;;;4.75;100.00;97041.91;5037014;28;20206;-67
2023/11/22 08:51:30;;;;;;;4.97;2.60;;;;;;;4.99;100.00;97044.25;5036817;28;20209;-68
2023/11/22 08:53:56;;;;;;;5.40;2.80;;;;;;;4.87;100.00;97036.56;5037388;28;20231;-67
2023/11/22 08:56:23;;;;;;;3.53;1.90;;;;;;;4.88;100.00;97048.66;5036670;28;20225;-68
2023/11/22 08:58:57;;;;;;;4.70;2.67;;;;;;;5.00;100.00;97056.34;5036923;28;20199;-67
2023/11/22 09:01:23;;;;;;;3.83;2.50;;;;;;;4.68;100.00;97051.22;5036101;28;20223;-67
2023/11/22 09:03:50;;;;;;;2.73;2.00;;;;;;;4.63;100.00;97055.97;5036374;28;20204;-67
2023/11/22 09:06:17;;;;;;;3.33;2.17;;;;;;;4.97;100.00;97045.31;5034503;28;20290;-68
2023/11/22 09:08:45;;;;;;;3.63;2.40;;;;;;;4.92;100.00;97034.41;5035953;28;20256;-68
2023/11/22 09:11:12;;;;;;;3.03;2.00;;;;;;;5.18;100.00;97036.56;5035861;28;20295;-69
2023/11/22 09:13:39;;;;;;;3.27;1.80;;;;;;;4.81;100.00;97046.66;5036468;28;20209;-67
2023/11/22 09:16:08;;;;;;;2.43;1.77;;;;;;;4.53;100.00;97044.59;5036127;28;20217;-69
2023/11/22 09:18:35;;;;;;;4.07;2.20;;;;;;;4.81;100.00;97049.28;5036120;28;20203;-67
2023/11/22 09:21:02;;;;;;;2.80;1.57;;;;;;;5.17;100.00;97050.59;5034014;28;20986;-68
2023/11/22 09:23:29;;;;;;;3.23;2.20;;;;;;;5.09;100.00;97055.59;5035241;28;20211;-68
2023/11/22 09:25:56;;;;;;;4.33;2.50;;;;;;;4.97;100.00;97053.97;5034912;28;20220;-68
2023/11/22 09:28:22;;;;;;;3.97;2.40;;;;;;;4.87;100.00;97053.06;5035304;28;20671;-68
2023/11/22 09:30:49;;;;;;;3.57;2.30;;;;;;;5.08;100.00;97064.38;5035821;28;20208;-68
2023/11/22 09:33:18;;;;;;;2.77;1.90;;;;;;;5.41;100.00;97061.66;5035102;28;20205;-68
2023/11/22 09:35:47;;;;;;;5.17;2.50;;;;;;;5.23;100.00;97063.16;5035196;28;20229;-68
2023/11/22 09:38:15;;;;;;;3.03;2.00;;;;;;;5.38;100.00;97068.91;5035677;28;20206;-68
2023/11/22 09:40:43;;;;;;;2.60;1.87;;;;;;;5.02;100.00;97072.72;5035378;28;20240;-68
2023/11/22 09:43:09;;;;;;;2.30;1.80;;;;;;;4.97;100.00;97074.88;5034616;28;20197;-68
2023/11/22 09:45:37;;;;;;;3.93;2.07;;;;;;;5.23;100.00;97068.38;5034961;28;20220;-67
2023/11/22 09:48:12;;;;;;;4.30;2.20;;;;;;;5.25;100.00;97084.75;5035220;28;20204;-68
2023/11/22 09:50:41;;;;;;;2.80;1.80;;;;;;;5.05;100.00;97077.72;5034331;28;20232;-67
2023/11/22 09:53:12;;;;;;;3.53;2.10;;;;;;;5.09;100.00;97073.03;5034910;28;20201;-67
2023/11/22 09:55:42;;;;;;;4.83;2.90;;;;;;;5.06;100.00;97074.13;5035653;28;20740;-68
2023/11/22 09:58:12;;;;;;;4.57;2.23;;;;;;;5.21;100.00;97062.44;5035750;28;20213;-68
2023/11/22 10:00:40;;;;;;;3.57;2.33;;;;;;;5.15;100.00;97073.38;5034906;28;20213;-68
2023/11/22 10:03:07;;;;;;;5.27;2.67;;;;;;;4.82;100.00;97077.06;5036196;28;20232;-68
2023/11/22 10:05:34;;;;;;;4.77;2.30;;;;;;;5.58;100.00;97072.38;5035369;28;20239;-68
2023/11/22 10:08:03;;;;;;;6.20;2.63;;;;;;;5.49;100.00;97061.84;5036306;28;20206;-68
2023/11/22 10:10:33;;;;;;;7.07;2.93;;;;;;;5.28;100.00;97071.44;5035902;28;20205;-68
2023/11/22 10:13:01;;;;;;;4.77;2.27;;;;;;;5.24;100.00;97062.19;5034905;28;20209;-68
2023/11/22 10:15:29;;;;;;;4.07;2.37;;;;;;;5.59;100.00;97065.38;5033653;28;20695;-68
2023/11/22 10:18:00;;;;;;;4.40;2.47;;;;;;;5.39;100.00;97063.56;5035471;28;20197;-68
2023/11/22 10:20:37;;;;;;;4.90;2.70;;;;;;;5.38;100.00;97061.88;5034958;28;20201;-67
2023/11/22 10:23:09;;;;;;;3.77;2.30;;;;;;;5.20;100.00;97068.63;5036692;28;20201;-67
2023/11/22 10:25:36;;;;;;;6.37;2.63;;;;;;;4.93;100.00;97073.44;5038445;28;20591;-67
2023/11/22 10:28:03;;;;;;;5.23;2.90;;;;;;;4.73;100.00;97078.59;5039209;28;20199;-67
2023/11/22 10:30:30;;;;;;;5.30;2.90;;;;;;;5.05;100.00;97072.50;5039252;28;20205;-67
2023/11/22 10:32:58;;;;;;;5.30;2.67;;;;;;;5.22;100.00;97074.56;5038194;28;20299;-68
2023/11/22 10:35:24;;;;;;;7.67;2.50;;;;;;;5.38;100.00;97079.38;5037773;28;20236;-67
2023/11/22 10:37:51;;;;;;;3.33;2.10;;;;;;;5.34;100.00;97078.78;5038562;28;20205;-67
2023/11/22 10:40:19;;;;;;;3.53;2.33;;;;;;;5.58;100.00;97098.50;5038389;28;20207;-67
2023/11/22 10:42:52;;;;;;;4.37;2.40;;;;;;;5.10;100.00;97101.66;5039387;28;20201;-67
2023/11/22 10:45:19;;;;;;;5.77;2.77;;;;;;;5.31;100.00;97105.16;5037921;28;20221;-67
2023/11/22 10:47:47;;;;;;;5.83;2.43;;;;;;;5.16;100.00;97095.94;5039498;28;20215;-70
2023/11/22 10:50:13;;;;;;;4.00;2.70;;;;;;;5.31;100.00;97094.72;5039747;28;20274;-68
2023/11/22 10:52:43;;;;;;;4.93;2.60;;;;;;;5.46;100.00;97094.28;5038238;28;20209;-69
2023/11/22 10:55:13;;;;;;;4.13;2.43;;;;;;;5.34;100.00;97102.28;5038040;28;20248;-68
2023/11/22 10:57:47;;;;;;;5.17;2.53;;;;;;;5.43;100.00;97104.16;5038365;28;20198;-68
2023/11/22 11:00:16;;;;;;;5.33;2.60;;;;;;;5.36;100.00;97108.25;5039851;28;20200;-68
2023/11/22 11:02:46;;;;;;;4.43;2.37;;;;;;;5.02;100.00;97104.06;5039779;28;20923;-68
2023/11/22 11:05:17;;;;;;;3.57;2.30;;;;;;;5.10;100.00;97111.28;5039178;28;20232;-70
2023/11/22 11:07:51;;;;;;;5.20;2.83;;;;;;;5.12;100.00;97112.00;5039740;28;20207;-68
2023/11/22 11:10:21;;;;;;;5.50;2.43;;;;;;;5.23;100.00;97107.56;5039023;28;20205;-69
2023/11/22 11:12:49;;;;;;;5.57;3.10;;;;;;;4.92;100.00;97116.19;5038288;28;20205;-70
2023/11/22 11:15:18;;;;;;;5.80;3.00;;;;;;;5.02;100.00;97111.06;5038486;28;20239;-68
2023/11/22 11:17:47;;;;;;;3.87;2.03;;;;;;;4.62;100.00;97109.09;5038528;28;20201;-70
2023/11/22 11:20:17;;;;;;;4.83;2.57;;;;;;;4.84;100.00;97105.50;5038633;28;20655;-70
2023/11/22 11:22:45;;;;;;;5.93;2.93;;;;;;;4.70;100.00;97104.09;5039825;28;20215;-70
2023/11/22 11:25:15;;;;;;;6.30;3.13;;;;;;;4.90;100.00;97102.44;5039159;28;20316;-70
2023/11/22 11:27:42;;;;;;;5.90;3.17;;;;;;;4.97;100.00;97100.16;5039179;28;20234;-69
2023/11/22 11:30:43;;;;;;;6.03;3.20;;;;;;;5.51;100.00;97099.13;5038606;28;20201;-67
2023/11/22 11:33:12;;;;;;;5.37;2.87;;;;;;;5.22;100.00;97105.91;5038326;28;20200;-68